KJAC/JAC METAR and TAF weather

Enter ICAO airport designator
Station Type Date Time Source
KJAC METAR 2023/03/21 17:56 UTC NOAA

KJAC 211756Z 20009KT 5SM -SN BKN024 OVC031 M01/M06 A2974


Station Type Date Time Source
KJAC Decoded METAR 2023/03/21 17:56 UTC NOAA

Jackson, Jackson Hole Airport, WY, United States (KJAC) 43-36N 110-44W
Mar 21, 2023 - 01:56 PM EDT / 2023.03.21 1756 UTC
Wind: from the SSW (200 degrees) at 10 MPH (9 KT):0
Visibility: 5 mile(s):0
Sky conditions: overcast
Weather: light snow
Temperature: 30 F (-1 C)
Windchill: 21 F (-6 C):1
Dew Point: 21 F (-6 C)
Relative Humidity: 68%
Pressure (altimeter): 29.74 in. Hg (1007 hPa)
ob: KJAC 211756Z 20009KT 5SM -SN BKN024 OVC031 M01/M06 A2974
cycle: 18

Station Type Date Time Source
KJAC TAF 2023/03/21 18:30 UTC NOAA

TAF KJAC 211727Z 2118/2218 17006KT P6SM VCSH SCT015 OVC035
TEMPO 2118/2119 2SM -SN OVC025
FM211900 15006KT P6SM SCT040 BKN080
FM220400 02008KT P6SM VCSH BKN040 OVC100
FM220800 03006KT 4SM -SN OVC025

Example: see airport list